Aquarius Solo Sailor — OL5595 — position and weather

sailwx.info

Track history (hours):
 
Tides and Currents Weather Stations Pressure Air Temp Water Temp Dewpoint Dewpoint Depression Visibility Wind Speed Wind Dir Waves Ship Positions

Aquarius Solo Sailor

Last reported at 2017-Nov-10 13:37 UTC. Time now 2017-Dec-15 10:30 UTC.
Position N 47°44' W 003°22'.
Warning: this ship's position is 34 days out of date.

Length 10 m.

Type: Sailing vessel. MMSI: 270037900.

Date/timePositionNaut miles runAvg speedWind from/ knotsBaromVisibWave heightAir tempDewpointWater temp
2017-Nov-10 13:37N 47°44' W 003°22'0 0.0
2017-Nov-10 13:28N 47°44' W 003°22'0 0.1
2017-Nov-10 13:00N 47°44' W 003°22'2 3.4
2017-Nov-10 12:30N 47°42' W 003°22'4 7.5
2017-Nov-10 12:00N 47°38' W 003°23'4 7.6
2017-Nov-10 11:30N 47°35' W 003°25'3 5.9
2017-Nov-10 11:00N 47°36' W 003°29'4 8.3
2017-Nov-10 10:30N 47°40' W 003°30'3 6.5
2017-Nov-10 10:00N 47°41' W 003°26'3 6.0
2017-Nov-10 09:30N 47°43' W 003°22'  
Track history (hours):
 
Tides and Currents Weather Stations Pressure Air Temp Water Temp Dewpoint Dewpoint Depression Visibility Wind Speed Wind Dir Waves Ship Positions

Aquarius Solo Sailor

Last reported at 2017-Nov-10 13:37 UTC. Time now 2017-Dec-15 10:30 UTC.
Position N 47°44' W 003°22'.
Warning: this ship's position is 34 days out of date.

Length 10 m.

Type: Sailing vessel. MMSI: 270037900.

Date/timePositionNaut miles runAvg speedWind from/ knotsBaromVisibWave heightAir tempDewpointWater temp
2017-Nov-10 13:37N 47°44' W 003°22'0 0.0
2017-Nov-10 13:28N 47°44' W 003°22'0 0.1
2017-Nov-10 13:00N 47°44' W 003°22'2 3.4
2017-Nov-10 12:30N 47°42' W 003°22'4 7.5
2017-Nov-10 12:00N 47°38' W 003°23'4 7.6
2017-Nov-10 11:30N 47°35' W 003°25'3 5.9
2017-Nov-10 11:00N 47°36' W 003°29'4 8.3
2017-Nov-10 10:30N 47°40' W 003°30'3 6.5
2017-Nov-10 10:00N 47°41' W 003°26'3 6.0
2017-Nov-10 09:30N 47°43' W 003°22'  

Dump ship's entire track history